createdAt,value
2022-11-17T00:00:26.972Z,12.35
2022-11-17T00:02:23.740Z,13.25
2022-11-17T00:04:10.767Z,14.13
2022-11-17T00:06:02.355Z,14.68
2022-11-17T00:07:50.060Z,13.77
2022-11-17T00:09:37.096Z,13.18
2022-11-17T00:11:24.372Z,14.20
2022-11-17T00:13:30.050Z,11.82
2022-11-17T00:15:17.253Z,14.13
2022-11-17T00:17:07.744Z,14.30
2022-11-17T00:19:13.393Z,14.07
2022-11-17T00:21:19.169Z,14.43
2022-11-17T00:23:06.936Z,13.95
2022-11-17T00:24:54.090Z,15.27
2022-11-17T00:27:01.012Z,14.20
2022-11-17T00:29:08.550Z,16.25
2022-11-17T00:31:14.299Z,15.10
2022-11-17T00:33:24.323Z,15.23
2022-11-17T00:35:11.661Z,14.10
2022-11-17T00:36:58.730Z,14.40
2022-11-17T00:38:45.686Z,14.70
2022-11-17T00:40:33.009Z,12.85
2022-11-17T00:42:20.033Z,14.67
2022-11-17T00:44:07.852Z,15.00
2022-11-17T00:45:55.352Z,13.85
2022-11-17T00:47:43.166Z,14.23
2022-11-17T00:49:30.157Z,13.35
2022-11-17T00:51:17.756Z,13.30
2022-11-17T00:53:04.760Z,13.85
2022-11-17T00:54:51.879Z,13.30
2022-11-17T00:56:39.398Z,13.35
2022-11-17T00:58:26.479Z,13.57
2022-11-17T01:00:13.755Z,13.83
2022-11-17T01:02:01.337Z,13.60
2022-11-17T01:03:48.741Z,13.02
2022-11-17T01:05:35.773Z,13.85
2022-11-17T01:07:23.113Z,11.55
2022-11-17T01:09:13.526Z,13.63
2022-11-17T01:11:27.213Z,13.00
2022-11-17T01:13:18.673Z,12.85
2022-11-17T01:15:06.246Z,12.60
2022-11-17T01:16:54.016Z,13.95
2022-11-17T01:20:29.023Z,11.95
2022-11-17T01:22:16.000Z,13.55
2022-11-17T01:24:03.575Z,13.00
2022-11-17T01:25:50.518Z,13.77
2022-11-17T01:27:38.100Z,12.13
2022-11-17T01:31:15.404Z,12.18
2022-11-17T01:33:02.349Z,11.25
2022-11-17T01:34:49.725Z,12.27
2022-11-17T01:37:00.340Z,12.67
2022-11-17T01:38:47.535Z,11.43
2022-11-17T01:40:34.800Z,12.10
2022-11-17T01:42:24.720Z,11.50
2022-11-17T01:44:48.124Z,11.45
2022-11-17T01:46:39.825Z,11.43
2022-11-17T01:48:26.837Z,11.02
2022-11-17T01:50:28.123Z,11.60
2022-11-17T01:52:15.966Z,11.32
2022-11-17T01:54:03.199Z,10.65
2022-11-17T01:55:57.221Z,11.68
2022-11-17T01:58:02.860Z,10.45
2022-11-17T01:59:54.321Z,11.07
2022-11-17T02:01:55.744Z,10.52
2022-11-17T02:03:47.779Z,9.82
2022-11-17T02:05:42.605Z,11.23
2022-11-17T02:07:36.648Z,10.93
2022-11-17T02:09:25.984Z,10.90
2022-11-17T02:11:17.196Z,10.23
2022-11-17T02:13:04.998Z,11.10
2022-11-17T02:14:54.151Z,11.60
2022-11-17T02:16:41.534Z,10.80
2022-11-17T02:18:28.598Z,10.00
2022-11-17T02:20:28.950Z,11.05
2022-11-17T02:22:37.493Z,10.32
2022-11-17T02:24:43.133Z,10.32
2022-11-17T02:26:48.973Z,10.45
2022-11-17T02:28:55.356Z,11.02
2022-11-17T02:31:14.633Z,10.70
2022-11-17T02:33:20.299Z,11.52
2022-11-17T02:35:28.134Z,11.98
2022-11-17T02:37:27.902Z,9.95
2022-11-17T02:39:39.123Z,9.65
2022-11-17T02:41:49.417Z,9.52
2022-11-17T02:44:12.724Z,9.80
2022-11-17T02:46:09.430Z,9.10
2022-11-17T02:48:00.972Z,9.20
2022-11-17T02:49:57.197Z,8.52
2022-11-17T02:51:46.405Z,8.38
2022-11-17T02:53:34.742Z,7.50
2022-11-17T02:55:22.061Z,8.00
2022-11-17T02:57:32.160Z,7.03
2022-11-17T02:59:23.935Z,7.38
2022-11-17T03:05:11.602Z,7.63
2022-11-17T03:07:32.059Z,7.22
2022-11-17T03:09:28.896Z,7.32
2022-11-17T03:11:16.637Z,7.50
2022-11-17T03:13:25.488Z,8.23
2022-11-17T03:15:40.593Z,7.90
2022-11-17T03:17:35.699Z,6.20
2022-11-17T03:19:35.604Z,6.93
2022-11-17T03:21:34.669Z,7.45
2022-11-17T03:23:28.828Z,7.35
2022-11-17T03:25:20.605Z,7.00
2022-11-17T03:27:22.676Z,7.82
2022-11-17T03:29:13.135Z,7.55
2022-11-17T03:31:04.726Z,7.75
2022-11-17T03:33:02.283Z,7.82
2022-11-17T03:34:57.308Z,8.27
2022-11-17T03:36:50.131Z,8.30
2022-11-17T03:38:40.966Z,8.63
2022-11-17T03:40:30.744Z,8.63
2022-11-17T03:42:30.904Z,9.02
2022-11-17T03:44:19.647Z,9.02
2022-11-17T03:46:13.135Z,9.52
2022-11-17T03:48:49.789Z,9.95
2022-11-17T03:50:41.628Z,9.90
2022-11-17T03:52:30.160Z,9.73
2022-11-17T03:54:17.970Z,8.77
2022-11-17T03:56:35.298Z,8.85
2022-11-17T03:58:27.966Z,8.30
2022-11-17T04:00:16.689Z,9.30
2022-11-17T04:02:04.827Z,8.93
2022-11-17T04:03:52.275Z,8.23
2022-11-17T04:05:39.247Z,8.40
2022-11-17T04:07:26.256Z,9.17
2022-11-17T04:09:13.592Z,8.20
2022-11-17T04:11:19.134Z,8.40
2022-11-17T04:13:27.090Z,8.35
2022-11-17T04:15:33.043Z,8.00
2022-11-17T04:17:20.674Z,8.73
2022-11-17T04:19:07.671Z,8.63
2022-11-17T04:20:56.990Z,9.10
2022-11-17T04:22:43.995Z,9.02
2022-11-17T04:24:30.956Z,8.70
2022-11-17T04:26:37.119Z,9.63
2022-11-17T04:28:37.644Z,10.70
2022-11-17T04:30:24.595Z,10.18
2022-11-17T04:32:12.532Z,7.35
2022-11-17T04:34:02.218Z,9.43
2022-11-17T04:35:52.006Z,9.05
2022-11-17T04:37:39.338Z,9.88
2022-11-17T04:39:26.342Z,8.70
2022-11-17T04:41:33.179Z,8.97
2022-11-17T04:43:20.513Z,8.70
2022-11-17T04:45:08.015Z,9.20
2022-11-17T04:46:55.848Z,9.45
2022-11-17T04:48:43.894Z,9.23
2022-11-17T04:52:17.839Z,9.70
2022-11-17T04:54:07.268Z,9.38
2022-11-17T04:55:54.305Z,10.15
2022-11-17T04:57:41.349Z,9.02
2022-11-17T04:59:31.049Z,9.52
2022-11-17T05:01:22.377Z,9.40
2022-11-17T05:03:09.379Z,9.48
2022-11-17T05:04:56.755Z,8.75
2022-11-17T05:06:44.968Z,9.03
2022-11-17T05:08:32.007Z,9.32
2022-11-17T05:10:39.281Z,8.95
2022-11-17T05:12:44.756Z,8.95
2022-11-17T05:14:31.869Z,9.52
2022-11-17T05:16:39.165Z,11.02
2022-11-17T05:18:26.176Z,10.88
2022-11-17T05:20:13.265Z,10.83
2022-11-17T05:22:01.553Z,9.70
2022-11-17T05:23:54.402Z,10.13
2022-11-17T05:25:41.384Z,9.48
2022-11-17T05:27:28.819Z,9.18
2022-11-17T05:29:18.435Z,10.68
2022-11-17T05:31:06.191Z,9.27
2022-11-17T05:34:41.530Z,9.52
2022-11-17T05:36:29.988Z,10.43
2022-11-17T05:38:17.754Z,10.05
2022-11-17T05:40:06.043Z,10.00
2022-11-17T05:41:53.201Z,11.35
2022-11-17T05:43:41.489Z,11.10
2022-11-17T05:45:28.630Z,11.00
2022-11-17T05:47:16.257Z,9.68
2022-11-17T05:49:04.062Z,11.07
2022-11-17T05:50:55.269Z,10.40
2022-11-17T05:52:42.480Z,10.90
2022-11-17T05:54:30.065Z,11.50
2022-11-17T05:56:28.402Z,10.98
2022-11-17T05:58:24.297Z,10.38
2022-11-17T06:00:12.404Z,10.70
2022-11-17T06:02:15.963Z,9.15
2022-11-17T06:04:05.714Z,10.32
2022-11-17T06:05:53.911Z,9.60
2022-11-17T06:07:41.615Z,10.38
2022-11-17T06:09:34.606Z,10.00
2022-11-17T06:11:22.039Z,10.35
2022-11-17T06:13:09.631Z,11.10
2022-11-17T06:14:56.894Z,10.15
2022-11-17T06:16:48.949Z,9.75
2022-11-17T06:18:41.034Z,9.27
2022-11-17T06:20:35.423Z,10.63
2022-11-17T06:22:24.544Z,9.88
2022-11-17T06:24:14.923Z,10.52
2022-11-17T06:26:07.441Z,10.73
2022-11-17T06:27:56.193Z,10.85
2022-11-17T06:29:45.207Z,10.23
2022-11-17T06:31:32.587Z,10.90
2022-11-17T06:33:20.055Z,11.00
2022-11-17T06:35:08.704Z,10.68
2022-11-17T06:36:56.020Z,11.85
2022-11-17T06:38:43.342Z,11.70
2022-11-17T06:40:30.517Z,11.52
2022-11-17T06:42:17.489Z,12.15
2022-11-17T06:44:04.979Z,11.70
2022-11-17T06:45:52.142Z,11.75
2022-11-17T06:47:39.150Z,11.60
2022-11-17T06:49:26.446Z,10.73
2022-11-17T06:51:13.583Z,10.05
2022-11-17T06:53:06.228Z,8.63
2022-11-17T06:54:53.631Z,8.48
2022-11-17T06:56:40.879Z,9.05
2022-11-17T07:00:17.543Z,8.77
2022-11-17T07:03:52.075Z,12.57
2022-11-17T07:05:40.435Z,9.45
2022-11-17T07:07:27.986Z,12.02
2022-11-17T07:09:18.413Z,9.38
2022-11-17T07:11:10.246Z,9.27
2022-11-17T07:12:57.577Z,8.43
2022-11-17T07:14:47.154Z,7.70
2022-11-17T07:16:34.749Z,7.00
2022-11-17T07:18:22.328Z,7.57
2022-11-17T07:20:10.622Z,7.32
2022-11-17T07:21:58.240Z,6.88
2022-11-17T07:23:46.260Z,7.45
2022-11-17T07:25:33.404Z,7.10
2022-11-17T07:27:20.981Z,6.70
2022-11-17T07:29:08.148Z,6.60
2022-11-17T07:30:55.799Z,7.10
2022-11-17T07:34:30.360Z,7.53
2022-11-17T07:36:17.509Z,8.18
2022-11-17T07:38:05.058Z,8.77
2022-11-17T07:39:52.137Z,5.40
2022-11-17T07:41:39.287Z,7.68
2022-11-17T07:43:27.555Z,7.70
2022-11-17T07:45:14.990Z,7.70
2022-11-17T07:47:02.348Z,8.68
2022-11-17T07:48:52.935Z,8.65
2022-11-17T07:50:41.792Z,8.38
2022-11-17T07:52:31.855Z,11.45
2022-11-17T07:54:19.320Z,10.57
2022-11-17T07:56:09.840Z,9.88
2022-11-17T07:57:58.982Z,8.10
2022-11-17T07:59:46.533Z,8.13
2022-11-17T08:01:33.802Z,7.10
2022-11-17T08:03:21.118Z,7.15
2022-11-17T08:05:09.204Z,7.15
2022-11-17T08:08:43.575Z,7.53
2022-11-17T08:10:31.549Z,7.95
2022-11-17T08:12:18.599Z,7.50
2022-11-17T08:14:05.976Z,7.38
2022-11-17T08:15:57.522Z,7.82
2022-11-17T08:17:44.984Z,8.07
2022-11-17T08:19:32.176Z,6.63
2022-11-17T08:21:19.780Z,6.50
2022-11-17T08:23:06.884Z,6.45
2022-11-17T08:24:54.162Z,6.95
2022-11-17T08:26:41.533Z,5.70
2022-11-17T08:28:28.701Z,5.90
2022-11-17T08:30:15.959Z,7.03
2022-11-17T08:32:03.478Z,8.75
2022-11-17T08:33:50.593Z,6.55
2022-11-17T08:35:38.006Z,5.72
2022-11-17T08:37:25.511Z,7.95
2022-11-17T08:39:12.628Z,7.85
2022-11-17T08:41:02.876Z,7.38
2022-11-17T08:43:00.698Z,5.90
2022-11-17T08:44:48.265Z,10.52
2022-11-17T08:46:35.449Z,12.80
2022-11-17T08:48:23.196Z,11.93
2022-11-17T08:50:10.383Z,17.60
2022-11-17T08:51:57.521Z,10.45
2022-11-17T08:53:45.107Z,7.82
2022-11-17T08:55:40.940Z,8.00
2022-11-17T08:57:32.643Z,11.90
2022-11-17T08:59:20.161Z,13.07
2022-11-17T09:01:09.420Z,11.85
2022-11-17T09:02:56.520Z,7.78
2022-11-17T09:04:46.204Z,6.55
2022-11-17T09:06:33.269Z,6.03
2022-11-17T09:08:44.416Z,6.30
2022-11-17T09:10:27.704Z,6.80
2022-11-17T09:12:15.633Z,7.65
2022-11-17T09:14:02.805Z,7.57
2022-11-17T09:15:50.496Z,8.02
2022-11-17T09:17:37.673Z,8.55
2022-11-17T09:19:24.934Z,7.10
2022-11-17T09:21:15.611Z,7.38
2022-11-17T09:23:02.998Z,7.32
2022-11-17T09:24:50.123Z,8.38
2022-11-17T09:26:40.970Z,7.60
2022-11-17T09:28:28.795Z,9.07
2022-11-17T09:32:09.712Z,9.18
2022-11-17T09:34:00.694Z,7.20
2022-11-17T09:35:50.777Z,8.13
2022-11-17T09:37:44.160Z,7.72
2022-11-17T09:39:31.198Z,7.35
2022-11-17T09:41:31.775Z,7.50
2022-11-17T09:43:27.172Z,6.72
2022-11-17T09:45:20.504Z,6.80
2022-11-17T09:47:10.447Z,7.10
2022-11-17T09:49:33.096Z,5.30
2022-11-17T09:51:25.526Z,5.25
2022-11-17T09:53:21.595Z,7.57
2022-11-17T09:55:08.922Z,7.75
2022-11-17T09:56:58.635Z,6.83
2022-11-17T09:58:58.887Z,8.57
2022-11-17T10:00:48.996Z,7.68
2022-11-17T10:02:36.436Z,7.05
2022-11-17T10:04:27.005Z,7.55
2022-11-17T10:06:21.609Z,9.23
2022-11-17T10:08:12.950Z,9.43
2022-11-17T10:10:02.348Z,9.02
2022-11-17T10:11:49.696Z,8.00
2022-11-17T10:13:37.959Z,9.40
2022-11-17T10:15:31.211Z,9.13
2022-11-17T10:17:19.069Z,8.10
2022-11-17T10:19:19.256Z,7.38
2022-11-17T10:21:08.439Z,8.48
2022-11-17T10:22:56.801Z,8.73
2022-11-17T10:24:50.486Z,9.45
2022-11-17T10:26:48.645Z,8.10
2022-11-17T10:28:36.336Z,8.60
2022-11-17T10:30:24.531Z,9.18
2022-11-17T10:32:15.470Z,8.32
2022-11-17T10:34:03.092Z,8.25
2022-11-17T10:35:56.434Z,8.32
2022-11-17T10:38:08.809Z,9.60
2022-11-17T10:40:25.650Z,10.90
2022-11-17T10:42:28.950Z,10.32
2022-11-17T10:44:22.179Z,10.05
2022-11-17T10:46:17.209Z,9.88
2022-11-17T10:48:37.531Z,8.27
2022-11-17T10:50:27.625Z,5.80
2022-11-17T10:52:18.070Z,8.07
2022-11-17T10:54:17.187Z,7.50
2022-11-17T10:56:21.806Z,7.88
2022-11-17T10:58:30.885Z,9.68
2022-11-17T11:00:28.221Z,9.55
2022-11-17T11:02:36.132Z,8.45
2022-11-17T11:04:32.771Z,8.38
2022-11-17T11:06:26.816Z,6.85
2022-11-17T11:08:21.147Z,7.78
2022-11-17T11:10:34.660Z,7.57
2022-11-17T11:13:17.474Z,5.55
2022-11-17T11:15:29.768Z,7.38
2022-11-17T11:17:17.961Z,8.90
2022-11-17T11:19:13.456Z,9.80
2022-11-17T11:21:07.724Z,14.15
2022-11-17T11:23:25.496Z,12.20
2022-11-17T11:25:37.775Z,12.35
2022-11-17T11:28:00.262Z,11.43
2022-11-17T11:30:04.339Z,10.60
2022-11-17T11:32:12.903Z,11.38
2022-11-17T11:34:19.304Z,10.90
2022-11-17T11:36:24.164Z,11.25
2022-11-17T11:38:29.000Z,9.80
2022-11-17T11:40:26.793Z,6.53
2022-11-17T11:42:42.768Z,6.35
2022-11-17T11:45:00.800Z,8.35
2022-11-17T11:47:20.466Z,7.72
2022-11-17T11:49:50.721Z,7.32
2022-11-17T11:51:39.039Z,8.32
2022-11-17T11:53:50.057Z,9.65
2022-11-17T11:55:39.898Z,8.93
2022-11-17T11:57:39.229Z,7.35
2022-11-17T11:59:38.179Z,7.90
2022-11-17T12:01:27.400Z,8.05
2022-11-17T12:03:42.806Z,6.70
2022-11-17T12:05:37.790Z,7.95
2022-11-17T12:07:50.579Z,7.38
2022-11-17T12:10:06.570Z,7.00
2022-11-17T12:12:00.380Z,6.47
2022-11-17T12:13:53.797Z,6.95
2022-11-17T12:15:42.003Z,7.70
2022-11-17T12:17:29.121Z,7.95
2022-11-17T12:19:44.363Z,5.78
2022-11-17T12:21:32.015Z,6.57
2022-11-17T12:23:54.703Z,5.53
2022-11-17T12:25:54.507Z,7.35
2022-11-17T12:27:53.866Z,6.20
2022-11-17T12:29:47.343Z,7.10
2022-11-17T12:31:46.450Z,6.85
2022-11-17T12:33:54.186Z,6.30
2022-11-17T12:35:41.301Z,6.43
2022-11-17T12:37:28.567Z,7.13
2022-11-17T12:39:52.077Z,7.00
2022-11-17T12:41:54.627Z,6.82
2022-11-17T12:43:42.110Z,6.30
2022-11-17T12:45:30.301Z,9.18
2022-11-17T12:49:24.396Z,8.43
2022-11-17T12:51:35.338Z,7.70
2022-11-17T12:53:47.868Z,8.07
2022-11-17T12:55:34.916Z,9.18
2022-11-17T12:57:30.404Z,9.63
2022-11-17T12:59:49.725Z,9.85
2022-11-17T13:01:48.934Z,9.60
2022-11-17T13:04:01.599Z,8.80
2022-11-17T13:06:34.298Z,7.72
2022-11-17T13:08:21.984Z,9.48
2022-11-17T13:10:33.262Z,11.40
2022-11-17T13:12:25.338Z,8.18
2022-11-17T13:14:15.401Z,9.95
2022-11-17T13:16:02.747Z,12.05
2022-11-17T13:17:50.267Z,10.98
2022-11-17T13:19:41.733Z,11.65
2022-11-17T13:21:33.277Z,11.57
2022-11-17T13:23:23.734Z,9.90
2022-11-17T13:25:23.618Z,12.07
2022-11-17T13:27:29.260Z,12.95
2022-11-17T13:29:20.092Z,10.85
2022-11-17T13:31:18.144Z,11.98
2022-11-17T13:34:59.930Z,11.95
2022-11-17T13:36:58.976Z,11.55
2022-11-17T13:38:51.341Z,9.98
2022-11-17T13:40:40.567Z,10.93
2022-11-17T13:42:32.804Z,9.02
2022-11-17T13:44:24.789Z,8.63
2022-11-17T13:46:12.101Z,10.23
2022-11-17T13:47:59.705Z,10.55
2022-11-17T13:49:46.821Z,10.30
2022-11-17T13:51:46.365Z,10.88
2022-11-17T13:53:34.282Z,7.63
2022-11-17T13:55:23.205Z,10.48
2022-11-17T13:57:22.740Z,9.05
2022-11-17T13:59:27.961Z,20.30
2022-11-17T14:01:20.261Z,18.73
2022-11-17T14:03:34.679Z,15.57
2022-11-17T14:05:28.110Z,11.43
2022-11-17T14:07:30.792Z,9.57
2022-11-17T14:09:19.186Z,7.43
2022-11-17T14:11:07.881Z,7.75
2022-11-17T14:13:22.902Z,7.13
2022-11-17T14:15:26.554Z,10.57
2022-11-17T14:17:20.283Z,9.00
2022-11-17T14:19:16.640Z,11.55
2022-11-17T14:21:08.073Z,7.57
2022-11-17T14:23:16.696Z,10.07
2022-11-17T14:25:05.725Z,8.88
2022-11-17T14:26:53.125Z,9.00
2022-11-17T14:28:40.452Z,9.38
2022-11-17T14:30:27.655Z,9.43
2022-11-17T14:32:14.679Z,9.25
2022-11-17T14:34:02.713Z,9.52
2022-11-17T14:35:58.647Z,11.98
2022-11-17T14:37:46.162Z,9.85
2022-11-17T14:39:33.599Z,10.73
2022-11-17T14:41:20.765Z,12.10
2022-11-17T14:43:07.922Z,11.52
2022-11-17T14:44:55.772Z,10.88
2022-11-17T14:46:43.524Z,10.10
2022-11-17T14:48:30.828Z,8.80
2022-11-17T14:50:19.746Z,9.93
2022-11-17T14:52:07.033Z,10.05
2022-11-17T14:53:54.382Z,10.93
2022-11-17T14:55:41.850Z,11.77
2022-11-17T14:57:28.971Z,11.02
2022-11-17T14:59:16.501Z,14.18
2022-11-17T15:01:17.869Z,14.73
2022-11-17T15:03:05.207Z,11.25
2022-11-17T15:04:52.922Z,10.10
2022-11-17T15:06:41.544Z,11.05
2022-11-17T15:08:28.930Z,10.80
2022-11-17T15:10:16.396Z,11.20
2022-11-17T15:12:05.213Z,13.55
2022-11-17T15:13:52.715Z,13.88
2022-11-17T15:15:39.821Z,13.80
2022-11-17T15:17:28.827Z,15.90
2022-11-17T15:19:15.964Z,14.77
2022-11-17T15:21:08.622Z,13.93
2022-11-17T15:23:01.866Z,17.95
2022-11-17T15:24:50.166Z,14.77
2022-11-17T15:26:37.277Z,11.90
2022-11-17T15:28:29.103Z,12.90
2022-11-17T15:30:17.817Z,13.45
2022-11-17T15:32:05.274Z,11.77
2022-11-17T15:33:52.671Z,18.10
2022-11-17T15:35:39.772Z,16.73
2022-11-17T15:37:27.255Z,12.23
2022-11-17T15:39:16.188Z,11.88
2022-11-17T15:41:03.871Z,10.43
2022-11-17T15:42:53.807Z,13.25
2022-11-17T15:44:41.286Z,12.82
2022-11-17T15:46:28.411Z,13.23
2022-11-17T15:48:18.691Z,15.43
2022-11-17T15:50:06.983Z,12.52
2022-11-17T15:51:54.517Z,13.10
2022-11-17T15:53:42.724Z,12.68
2022-11-17T15:55:30.077Z,16.25
2022-11-17T15:57:17.212Z,19.70
2022-11-17T15:59:06.039Z,13.57
2022-11-17T16:00:53.519Z,12.50
2022-11-17T16:02:43.262Z,14.88
2022-11-17T16:04:30.814Z,18.65
2022-11-17T16:06:20.805Z,16.90
2022-11-17T16:08:07.946Z,17.48
2022-11-17T16:09:55.070Z,12.60
2022-11-17T16:11:43.791Z,15.20
2022-11-17T16:13:31.115Z,15.95
2022-11-17T16:15:18.264Z,13.15
2022-11-17T16:17:05.737Z,16.58
2022-11-17T16:18:52.899Z,16.77
2022-11-17T16:20:40.033Z,15.13
2022-11-17T16:22:27.477Z,14.95
2022-11-17T16:24:15.254Z,19.40
2022-11-17T16:26:02.330Z,18.92
2022-11-17T16:27:49.707Z,19.60
2022-11-17T16:29:36.908Z,19.33
2022-11-17T16:31:25.979Z,14.63
2022-11-17T16:33:15.192Z,13.55
2022-11-17T16:35:02.232Z,14.35
2022-11-17T16:36:49.469Z,12.77
2022-11-17T16:38:42.322Z,14.88
2022-11-17T16:40:35.227Z,15.00
2022-11-17T16:42:22.404Z,14.75
2022-11-17T16:44:12.666Z,14.30
2022-11-17T16:45:59.988Z,14.20
2022-11-17T16:47:47.381Z,12.57
2022-11-17T16:49:35.955Z,10.05
2022-11-17T16:51:23.155Z,14.35
2022-11-17T16:53:10.489Z,16.35
2022-11-17T16:55:03.254Z,18.40
2022-11-17T16:56:51.810Z,19.17
2022-11-17T16:58:39.303Z,15.07
2022-11-17T17:00:26.695Z,18.70
2022-11-17T17:02:14.189Z,16.83
2022-11-17T17:04:04.547Z,19.27
2022-11-17T17:05:51.989Z,23.23
2022-11-17T17:07:39.241Z,24.45
2022-11-17T17:09:28.229Z,18.30
2022-11-17T17:11:16.421Z,16.55
2022-11-17T17:13:03.466Z,15.70
2022-11-17T17:14:50.514Z,17.13
2022-11-17T17:16:38.277Z,20.05
2022-11-17T17:18:25.314Z,14.68
2022-11-17T17:20:12.445Z,18.50
2022-11-17T17:21:59.875Z,17.00
2022-11-17T17:23:47.375Z,17.80
2022-11-17T17:25:34.436Z,19.13
2022-11-17T17:27:22.104Z,15.85
2022-11-17T17:29:10.031Z,17.08
2022-11-17T17:32:44.494Z,16.42
2022-11-17T17:34:31.588Z,13.88
2022-11-17T17:36:23.857Z,15.93
2022-11-17T17:38:11.296Z,16.80
2022-11-17T17:39:58.344Z,18.17
2022-11-17T17:41:46.122Z,18.55
2022-11-17T17:43:34.647Z,18.13
2022-11-17T17:45:21.729Z,17.10
2022-11-17T17:47:08.869Z,17.97
2022-11-17T17:48:56.707Z,20.70
2022-11-17T17:50:43.741Z,23.35
2022-11-17T17:52:30.827Z,22.23
2022-11-17T17:54:20.840Z,23.00
2022-11-17T17:56:10.799Z,19.88
2022-11-17T17:57:58.017Z,17.70
2022-11-17T17:59:45.660Z,17.85
2022-11-17T18:01:35.590Z,21.75
2022-11-17T18:03:23.276Z,22.77
2022-11-17T18:05:10.864Z,23.30
2022-11-17T18:06:59.415Z,22.02
2022-11-17T18:08:47.044Z,17.35
2022-11-17T18:12:22.983Z,18.17
2022-11-17T18:14:10.406Z,17.20
2022-11-17T18:16:06.517Z,15.45
2022-11-17T18:17:53.784Z,18.60
2022-11-17T18:19:40.995Z,19.67
2022-11-17T18:21:29.298Z,19.00
2022-11-17T18:23:16.558Z,18.08
2022-11-17T18:25:07.805Z,19.42
2022-11-17T18:26:55.630Z,19.45
2022-11-17T18:28:45.201Z,20.10
2022-11-17T18:30:33.005Z,18.42
2022-11-17T18:32:20.536Z,19.63
2022-11-17T18:34:27.840Z,19.80
2022-11-17T18:38:02.495Z,16.90
2022-11-17T18:39:49.916Z,19.17
2022-11-17T18:41:37.498Z,17.60
2022-11-17T18:45:12.161Z,15.93
2022-11-17T18:47:02.817Z,15.43
2022-11-17T18:48:53.055Z,16.40
2022-11-17T18:51:17.218Z,16.83
2022-11-17T18:52:52.086Z,16.15
2022-11-17T18:54:39.922Z,17.80
2022-11-17T18:56:31.072Z,13.98
2022-11-17T18:58:18.239Z,15.40
2022-11-17T19:00:06.789Z,16.92
2022-11-17T19:01:53.996Z,18.77
2022-11-17T19:03:43.079Z,23.73
2022-11-17T19:05:33.767Z,26.25
2022-11-17T19:07:20.967Z,24.25
2022-11-17T19:09:08.693Z,22.20
2022-11-17T19:12:43.762Z,18.27
2022-11-17T19:14:30.914Z,18.20
2022-11-17T19:16:24.479Z,17.50
2022-11-17T19:18:11.689Z,19.58
2022-11-17T19:20:01.574Z,14.98
2022-11-17T19:21:50.742Z,16.73
2022-11-17T19:23:40.559Z,17.83
2022-11-17T19:25:28.800Z,19.65
2022-11-17T19:29:17.830Z,18.02
2022-11-17T19:31:15.549Z,19.05
2022-11-17T19:33:03.796Z,19.98
2022-11-17T19:36:39.712Z,23.48
2022-11-17T19:38:28.139Z,23.13
2022-11-17T19:40:15.698Z,23.83
2022-11-17T19:42:02.968Z,24.80
2022-11-17T19:43:55.698Z,22.10
2022-11-17T19:45:42.786Z,24.75
2022-11-17T19:47:29.826Z,25.00
2022-11-17T19:49:17.751Z,22.77
2022-11-17T19:51:17.335Z,20.13
2022-11-17T19:53:04.435Z,19.48
2022-11-17T19:54:51.841Z,20.67
2022-11-17T19:56:38.986Z,22.85
2022-11-17T19:58:25.999Z,19.57
2022-11-17T20:00:14.410Z,23.50
2022-11-17T20:02:01.562Z,21.23
2022-11-17T20:03:49.607Z,19.65
2022-11-17T20:05:37.722Z,21.02
2022-11-17T20:07:25.043Z,19.40
2022-11-17T20:09:14.888Z,19.33
2022-11-17T20:11:15.118Z,18.88
2022-11-17T20:13:02.210Z,19.45
2022-11-17T20:14:52.213Z,15.18
2022-11-17T20:16:42.071Z,20.17
2022-11-17T20:18:29.809Z,19.90
2022-11-17T20:20:17.752Z,22.60
2022-11-17T20:22:05.875Z,22.45
2022-11-17T20:23:53.748Z,22.67
2022-11-17T20:27:28.274Z,22.48
2022-11-17T20:29:15.693Z,24.50
2022-11-17T20:31:12.368Z,22.60
2022-11-17T20:33:04.853Z,21.10
2022-11-17T20:34:52.005Z,20.02
2022-11-17T20:36:39.262Z,20.17
2022-11-17T20:38:29.433Z,20.88
2022-11-17T20:40:16.680Z,20.38
2022-11-17T20:42:03.846Z,20.92
2022-11-17T20:43:56.774Z,21.17
2022-11-17T20:45:43.910Z,20.92
2022-11-17T20:47:31.353Z,21.38
2022-11-17T20:49:19.315Z,20.92
2022-11-17T20:51:10.935Z,22.35
2022-11-17T20:52:57.984Z,21.85
2022-11-17T20:54:45.653Z,20.33
2022-11-17T20:56:32.802Z,20.77
2022-11-17T20:58:21.477Z,21.52
2022-11-17T21:00:09.918Z,22.13
2022-11-17T21:01:57.207Z,24.42
2022-11-17T21:03:48.044Z,23.50
2022-11-17T21:05:40.596Z,22.70
2022-11-17T21:07:28.677Z,23.88
2022-11-17T21:09:16.979Z,23.20
2022-11-17T21:12:53.309Z,21.20
2022-11-17T21:14:40.512Z,22.48
2022-11-17T21:16:30.367Z,20.77
2022-11-17T21:18:23.651Z,22.35
2022-11-17T21:20:11.700Z,21.10
2022-11-17T21:21:59.134Z,20.83
2022-11-17T21:23:46.491Z,19.40
2022-11-17T21:25:36.451Z,19.13
2022-11-17T21:27:24.767Z,20.73
2022-11-17T21:29:12.013Z,20.58
2022-11-17T21:31:11.993Z,20.20
2022-11-17T21:32:59.937Z,20.20
2022-11-17T21:34:49.850Z,21.45
2022-11-17T21:36:37.230Z,20.52
2022-11-17T21:38:24.925Z,21.13
2022-11-17T21:40:12.155Z,20.00
2022-11-17T21:42:00.101Z,20.65
2022-11-17T21:43:49.707Z,21.30
2022-11-17T21:45:36.890Z,20.42
2022-11-17T21:47:23.970Z,22.38
2022-11-17T21:49:11.438Z,22.60
2022-11-17T21:50:58.799Z,22.42
2022-11-17T21:52:46.327Z,20.98
2022-11-17T21:54:33.989Z,19.40
2022-11-17T21:56:21.736Z,19.27
2022-11-17T21:58:08.845Z,20.95
2022-11-17T21:59:56.218Z,20.45
2022-11-17T22:01:43.462Z,21.17
2022-11-17T22:03:30.500Z,19.58
2022-11-17T22:05:18.072Z,20.27
2022-11-17T22:07:05.225Z,14.27
2022-11-17T22:08:54.222Z,20.08
2022-11-17T22:10:42.267Z,20.05
2022-11-17T22:14:19.201Z,19.33
2022-11-17T22:16:14.461Z,19.33
2022-11-17T22:18:02.067Z,20.48
2022-11-17T22:19:49.170Z,20.67
2022-11-17T22:21:37.408Z,19.50
2022-11-17T22:23:24.581Z,20.05
2022-11-17T22:25:37.637Z,16.48
2022-11-17T22:27:18.876Z,20.38
2022-11-17T22:29:08.047Z,19.10
2022-11-17T22:30:55.833Z,18.25
2022-11-17T22:32:45.373Z,17.55
2022-11-17T22:34:32.948Z,18.38
2022-11-17T22:36:20.252Z,17.73
2022-11-17T22:38:07.570Z,18.35
2022-11-17T22:39:54.811Z,18.15
2022-11-17T22:41:42.058Z,17.65
2022-11-17T22:43:29.980Z,17.58
2022-11-17T22:45:17.021Z,17.77
2022-11-17T22:47:04.057Z,17.53
2022-11-17T22:48:51.951Z,16.83
2022-11-17T22:50:39.074Z,17.13
2022-11-17T22:52:26.039Z,17.73
2022-11-17T22:54:13.418Z,18.13
2022-11-17T22:56:06.988Z,16.65
2022-11-17T22:57:54.153Z,18.42
2022-11-17T22:59:41.778Z,17.02
2022-11-17T23:01:28.981Z,17.67
2022-11-17T23:03:16.069Z,17.27
2022-11-17T23:05:03.646Z,18.33
2022-11-17T23:06:50.679Z,17.63
2022-11-17T23:08:37.719Z,17.70
2022-11-17T23:10:25.081Z,17.67
2022-11-17T23:12:12.103Z,17.02
2022-11-17T23:13:59.265Z,16.83
2022-11-17T23:15:46.706Z,17.33
2022-11-17T23:17:33.708Z,17.30
2022-11-17T23:19:20.974Z,16.80
2022-11-17T23:21:10.624Z,15.52
2022-11-17T23:22:57.628Z,15.85
2022-11-17T23:24:44.684Z,16.42
2022-11-17T23:26:32.069Z,17.60
2022-11-17T23:28:19.637Z,16.53
2022-11-17T23:30:07.236Z,17.92
2022-11-17T23:31:54.517Z,17.67
2022-11-17T23:33:43.838Z,18.90
2022-11-17T23:35:32.651Z,17.17
2022-11-17T23:37:20.571Z,17.00
2022-11-17T23:39:07.664Z,18.23
2022-11-17T23:41:01.777Z,17.65
2022-11-17T23:42:49.101Z,17.83
2022-11-17T23:44:36.144Z,16.50
2022-11-17T23:46:24.993Z,18.47
2022-11-17T23:48:12.346Z,18.30
2022-11-17T23:49:59.318Z,13.80
2022-11-17T23:51:46.331Z,18.77
2022-11-17T23:53:34.437Z,18.75
2022-11-17T23:57:08.351Z,17.08
2022-11-17T23:58:55.669Z,18.80
